sensor_id;sensor_type;location;lat;lon;timestamp;temperature;humidity
50586;DHT22;36542;51.700;8.846;2022-12-07T00:00:28;2.70;99.90
50586;DHT22;36542;51.700;8.846;2022-12-07T00:02:53;2.70;99.90
50586;DHT22;36542;51.700;8.846;2022-12-07T00:05:19;2.70;99.90
50586;DHT22;36542;51.700;8.846;2022-12-07T00:07:44;2.70;99.90
50586;DHT22;36542;51.700;8.846;2022-12-07T00:10:10;2.70;99.90
50586;DHT22;36542;51.700;8.846;2022-12-07T00:12:35;2.70;99.90
50586;DHT22;36542;51.700;8.846;2022-12-07T00:15:01;2.70;99.90
50586;DHT22;36542;51.700;8.846;2022-12-07T00:17:27;2.70;99.90
50586;DHT22;36542;51.700;8.846;2022-12-07T00:19:52;2.70;99.90
50586;DHT22;36542;51.700;8.846;2022-12-07T00:22:18;2.70;99.90
50586;DHT22;36542;51.700;8.846;2022-12-07T00:24:43;2.70;99.90
50586;DHT22;36542;51.700;8.846;2022-12-07T00:27:09;2.80;99.90
50586;DHT22;36542;51.700;8.846;2022-12-07T00:29:34;2.80;99.90
50586;DHT22;36542;51.700;8.846;2022-12-07T00:32:02;2.80;99.90
50586;DHT22;36542;51.700;8.846;2022-12-07T00:34:28;2.80;99.90
50586;DHT22;36542;51.700;8.846;2022-12-07T00:36:53;2.80;99.90
50586;DHT22;36542;51.700;8.846;2022-12-07T00:39:19;2.80;99.90
50586;DHT22;36542;51.700;8.846;2022-12-07T00:41:44;2.90;99.90
50586;DHT22;36542;51.700;8.846;2022-12-07T00:44:10;2.90;99.90
50586;DHT22;36542;51.700;8.846;2022-12-07T00:46:35;2.90;99.90
50586;DHT22;36542;51.700;8.846;2022-12-07T00:49:01;2.90;99.90
50586;DHT22;36542;51.700;8.846;2022-12-07T00:51:26;2.90;99.90
50586;DHT22;36542;51.700;8.846;2022-12-07T00:53:52;2.90;99.90
50586;DHT22;36542;51.700;8.846;2022-12-07T00:58:59;2.90;99.90
50586;DHT22;36542;51.700;8.846;2022-12-07T01:01:27;3.00;99.90
50586;DHT22;36542;51.700;8.846;2022-12-07T01:03:53;2.90;99.90
50586;DHT22;36542;51.700;8.846;2022-12-07T01:06:21;2.90;99.90
50586;DHT22;36542;51.700;8.846;2022-12-07T01:08:48;3.00;99.90
50586;DHT22;36542;51.700;8.846;2022-12-07T01:11:17;3.00;99.90
50586;DHT22;36542;51.700;8.846;2022-12-07T01:13:43;2.90;99.90
50586;DHT22;36542;51.700;8.846;2022-12-07T01:16:12;3.00;99.90
50586;DHT22;36542;51.700;8.846;2022-12-07T01:18:38;3.00;99.90
50586;DHT22;36542;51.700;8.846;2022-12-07T01:21:06;3.00;99.90
50586;DHT22;36542;51.700;8.846;2022-12-07T01:23:33;3.00;99.90
50586;DHT22;36542;51.700;8.846;2022-12-07T01:26:02;3.00;99.90
50586;DHT22;36542;51.700;8.846;2022-12-07T01:28:28;3.00;99.90
50586;DHT22;36542;51.700;8.846;2022-12-07T01:31:05;3.00;99.90
50586;DHT22;36542;51.700;8.846;2022-12-07T01:33:34;3.00;99.90
50586;DHT22;36542;51.700;8.846;2022-12-07T01:36:05;3.00;99.90
50586;DHT22;36542;51.700;8.846;2022-12-07T01:38:31;3.00;99.90
50586;DHT22;36542;51.700;8.846;2022-12-07T01:40:58;3.00;99.90
50586;DHT22;36542;51.700;8.846;2022-12-07T01:43:26;3.00;99.90
50586;DHT22;36542;51.700;8.846;2022-12-07T01:45:52;3.00;99.90
50586;DHT22;36542;51.700;8.846;2022-12-07T01:51:02;3.10;99.90
50586;DHT22;36542;51.700;8.846;2022-12-07T01:53:30;3.10;99.90
50586;DHT22;36542;51.700;8.846;2022-12-07T01:55:56;3.10;99.90
50586;DHT22;36542;51.700;8.846;2022-12-07T01:58:23;3.10;99.90
50586;DHT22;36542;51.700;8.846;2022-12-07T02:00:49;3.10;99.90
50586;DHT22;36542;51.700;8.846;2022-12-07T02:05:44;3.10;99.90
50586;DHT22;36542;51.700;8.846;2022-12-07T02:08:10;3.20;99.90
50586;DHT22;36542;51.700;8.846;2022-12-07T02:10:37;3.20;99.90
50586;DHT22;36542;51.700;8.846;2022-12-07T02:13:23;3.20;99.90
50586;DHT22;36542;51.700;8.846;2022-12-07T02:16:10;3.20;99.90
50586;DHT22;36542;51.700;8.846;2022-12-07T02:21:45;3.20;99.90
50586;DHT22;36542;51.700;8.846;2022-12-07T02:27:41;3.20;99.90
50586;DHT22;36542;51.700;8.846;2022-12-07T02:30:13;3.20;99.90
50586;DHT22;36542;51.700;8.846;2022-12-07T02:32:51;3.20;99.90
50586;DHT22;36542;51.700;8.846;2022-12-07T02:35:42;3.20;99.90
50586;DHT22;36542;51.700;8.846;2022-12-07T02:38:25;3.20;99.90
50586;DHT22;36542;51.700;8.846;2022-12-07T02:41:02;3.20;99.90
50586;DHT22;36542;51.700;8.846;2022-12-07T02:43:43;3.20;99.90
50586;DHT22;36542;51.700;8.846;2022-12-07T02:46:14;3.20;99.90
50586;DHT22;36542;51.700;8.846;2022-12-07T02:48:42;3.20;99.90
50586;DHT22;36542;51.700;8.846;2022-12-07T02:51:08;3.20;99.90
50586;DHT22;36542;51.700;8.846;2022-12-07T02:53:36;3.20;99.90
50586;DHT22;36542;51.700;8.846;2022-12-07T03:07:27;3.30;99.90
50586;DHT22;36542;51.700;8.846;2022-12-07T03:10:21;3.30;99.90
50586;DHT22;36542;51.700;8.846;2022-12-07T03:13:09;3.30;99.90
50586;DHT22;36542;51.700;8.846;2022-12-07T03:18:18;3.20;99.90
50586;DHT22;36542;51.700;8.846;2022-12-07T03:20:44;3.30;99.90
50586;DHT22;36542;51.700;8.846;2022-12-07T03:23:12;3.30;99.90
50586;DHT22;36542;51.700;8.846;2022-12-07T03:25:42;3.30;99.90
50586;DHT22;36542;51.700;8.846;2022-12-07T03:28:10;3.30;99.90
50586;DHT22;36542;51.700;8.846;2022-12-07T03:30:44;3.20;99.90
50586;DHT22;36542;51.700;8.846;2022-12-07T03:33:59;3.30;99.90
50586;DHT22;36542;51.700;8.846;2022-12-07T03:36:16;3.30;99.90
50586;DHT22;36542;51.700;8.846;2022-12-07T03:38:48;3.30;99.90
50586;DHT22;36542;51.700;8.846;2022-12-07T03:41:21;3.30;99.90
50586;DHT22;36542;51.700;8.846;2022-12-07T03:43:48;3.30;99.90
50586;DHT22;36542;51.700;8.846;2022-12-07T03:52:07;3.30;99.90
50586;DHT22;36542;51.700;8.846;2022-12-07T03:54:49;3.30;99.90
50586;DHT22;36542;51.700;8.846;2022-12-07T03:57:17;3.20;99.90
50586;DHT22;36542;51.700;8.846;2022-12-07T03:59:43;3.20;99.90
50586;DHT22;36542;51.700;8.846;2022-12-07T04:02:11;3.20;99.90
50586;DHT22;36542;51.700;8.846;2022-12-07T04:04:37;3.20;99.90
50586;DHT22;36542;51.700;8.846;2022-12-07T04:07:03;3.20;99.90
50586;DHT22;36542;51.700;8.846;2022-12-07T04:09:29;3.20;99.90
50586;DHT22;36542;51.700;8.846;2022-12-07T04:11:54;3.10;99.90
50586;DHT22;36542;51.700;8.846;2022-12-07T04:14:20;3.20;99.90
50586;DHT22;36542;51.700;8.846;2022-12-07T04:16:50;3.10;99.90
50586;DHT22;36542;51.700;8.846;2022-12-07T04:19:19;3.10;99.90
50586;DHT22;36542;51.700;8.846;2022-12-07T04:21:45;3.20;99.90
50586;DHT22;36542;51.700;8.846;2022-12-07T04:24:12;3.10;99.90
50586;DHT22;36542;51.700;8.846;2022-12-07T04:26:38;3.10;99.90
50586;DHT22;36542;51.700;8.846;2022-12-07T04:29:04;3.10;99.90
50586;DHT22;36542;51.700;8.846;2022-12-07T04:31:29;3.20;99.90
50586;DHT22;36542;51.700;8.846;2022-12-07T04:33:56;3.20;99.90
50586;DHT22;36542;51.700;8.846;2022-12-07T04:36:21;3.10;99.90
50586;DHT22;36542;51.700;8.846;2022-12-07T04:38:47;3.10;99.90
50586;DHT22;36542;51.700;8.846;2022-12-07T04:41:13;3.10;99.90
50586;DHT22;36542;51.700;8.846;2022-12-07T04:43:39;3.10;99.90
50586;DHT22;36542;51.700;8.846;2022-12-07T04:46:04;3.10;99.90
50586;DHT22;36542;51.700;8.846;2022-12-07T04:48:30;3.00;99.90
50586;DHT22;36542;51.700;8.846;2022-12-07T04:50:56;3.10;99.90
50586;DHT22;36542;51.700;8.846;2022-12-07T04:53:22;3.00;99.90
50586;DHT22;36542;51.700;8.846;2022-12-07T04:55:48;3.00;99.90
50586;DHT22;36542;51.700;8.846;2022-12-07T04:58:14;3.00;99.90
50586;DHT22;36542;51.700;8.846;2022-12-07T05:00:41;3.00;99.90
50586;DHT22;36542;51.700;8.846;2022-12-07T05:03:06;3.00;99.90
50586;DHT22;36542;51.700;8.846;2022-12-07T05:05:32;3.00;99.90
50586;DHT22;36542;51.700;8.846;2022-12-07T05:07:58;3.00;99.90
50586;DHT22;36542;51.700;8.846;2022-12-07T05:10:23;3.00;99.90
50586;DHT22;36542;51.700;8.846;2022-12-07T05:12:49;2.90;99.90
50586;DHT22;36542;51.700;8.846;2022-12-07T05:15:15;2.90;99.90
50586;DHT22;36542;51.700;8.846;2022-12-07T05:17:41;3.00;99.90
50586;DHT22;36542;51.700;8.846;2022-12-07T05:20:07;2.90;99.90
50586;DHT22;36542;51.700;8.846;2022-12-07T05:22:32;2.90;99.90
50586;DHT22;36542;51.700;8.846;2022-12-07T05:24:58;2.90;99.90
50586;DHT22;36542;51.700;8.846;2022-12-07T05:27:23;3.00;99.90
50586;DHT22;36542;51.700;8.846;2022-12-07T05:29:52;2.90;99.90
50586;DHT22;36542;51.700;8.846;2022-12-07T05:32:17;2.90;99.90
50586;DHT22;36542;51.700;8.846;2022-12-07T05:34:43;3.00;99.90
50586;DHT22;36542;51.700;8.846;2022-12-07T05:37:08;3.00;99.90
50586;DHT22;36542;51.700;8.846;2022-12-07T05:39:34;2.90;99.90
50586;DHT22;36542;51.700;8.846;2022-12-07T05:42:00;2.90;99.90
50586;DHT22;36542;51.700;8.846;2022-12-07T05:44:42;2.90;99.90
50586;DHT22;36542;51.700;8.846;2022-12-07T05:47:08;2.90;99.90
50586;DHT22;36542;51.700;8.846;2022-12-07T05:49:34;2.80;99.90
50586;DHT22;36542;51.700;8.846;2022-12-07T05:52:00;2.90;99.90
50586;DHT22;36542;51.700;8.846;2022-12-07T05:54:26;2.80;99.90
50586;DHT22;36542;51.700;8.846;2022-12-07T05:56:51;2.80;99.90
50586;DHT22;36542;51.700;8.846;2022-12-07T05:59:17;2.80;99.90
50586;DHT22;36542;51.700;8.846;2022-12-07T06:01:56;2.80;99.90
50586;DHT22;36542;51.700;8.846;2022-12-07T06:04:23;2.70;99.90
50586;DHT22;36542;51.700;8.846;2022-12-07T06:06:49;2.80;99.90
50586;DHT22;36542;51.700;8.846;2022-12-07T06:09:15;2.80;99.90
50586;DHT22;36542;51.700;8.846;2022-12-07T06:11:41;2.80;99.90
50586;DHT22;36542;51.700;8.846;2022-12-07T06:14:25;2.80;99.90
50586;DHT22;36542;51.700;8.846;2022-12-07T06:16:51;2.80;99.90
50586;DHT22;36542;51.700;8.846;2022-12-07T06:19:17;2.80;99.90
50586;DHT22;36542;51.700;8.846;2022-12-07T06:21:43;2.70;99.90
50586;DHT22;36542;51.700;8.846;2022-12-07T06:24:11;2.70;99.90
50586;DHT22;36542;51.700;8.846;2022-12-07T06:26:36;2.70;99.90
50586;DHT22;36542;51.700;8.846;2022-12-07T06:29:02;2.70;99.90
50586;DHT22;36542;51.700;8.846;2022-12-07T06:31:27;2.70;99.90
50586;DHT22;36542;51.700;8.846;2022-12-07T06:33:58;2.70;99.90
50586;DHT22;36542;51.700;8.846;2022-12-07T06:36:23;2.70;99.90
50586;DHT22;36542;51.700;8.846;2022-12-07T06:38:49;2.70;99.90
50586;DHT22;36542;51.700;8.846;2022-12-07T06:41:14;2.70;99.90
50586;DHT22;36542;51.700;8.846;2022-12-07T06:43:40;2.70;99.90
50586;DHT22;36542;51.700;8.846;2022-12-07T06:46:06;2.70;99.90
50586;DHT22;36542;51.700;8.846;2022-12-07T06:48:31;2.70;99.90
50586;DHT22;36542;51.700;8.846;2022-12-07T06:50:57;2.70;99.90
50586;DHT22;36542;51.700;8.846;2022-12-07T06:53:22;2.70;99.90
50586;DHT22;36542;51.700;8.846;2022-12-07T06:55:48;2.70;99.90
50586;DHT22;36542;51.700;8.846;2022-12-07T06:58:14;2.70;99.90
50586;DHT22;36542;51.700;8.846;2022-12-07T07:00:40;2.70;99.90
50586;DHT22;36542;51.700;8.846;2022-12-07T07:03:05;2.70;99.90
50586;DHT22;36542;51.700;8.846;2022-12-07T07:05:31;2.70;99.90
50586;DHT22;36542;51.700;8.846;2022-12-07T07:07:57;2.70;99.90
50586;DHT22;36542;51.700;8.846;2022-12-07T07:10:22;2.70;99.90
50586;DHT22;36542;51.700;8.846;2022-12-07T07:12:48;2.70;99.90
50586;DHT22;36542;51.700;8.846;2022-12-07T07:15:13;2.70;99.90
50586;DHT22;36542;51.700;8.846;2022-12-07T07:17:39;2.60;99.90
50586;DHT22;36542;51.700;8.846;2022-12-07T07:20:05;2.60;99.90
50586;DHT22;36542;51.700;8.846;2022-12-07T07:22:30;2.60;99.90
50586;DHT22;36542;51.700;8.846;2022-12-07T07:24:56;2.60;99.90
50586;DHT22;36542;51.700;8.846;2022-12-07T07:27:21;2.60;99.90
50586;DHT22;36542;51.700;8.846;2022-12-07T07:29:47;2.60;99.90
50586;DHT22;36542;51.700;8.846;2022-12-07T07:32:12;2.60;99.90
50586;DHT22;36542;51.700;8.846;2022-12-07T07:34:39;2.60;99.90
50586;DHT22;36542;51.700;8.846;2022-12-07T07:37:04;2.60;99.90
50586;DHT22;36542;51.700;8.846;2022-12-07T07:39:30;2.60;99.90
50586;DHT22;36542;51.700;8.846;2022-12-07T07:41:55;2.60;99.90
50586;DHT22;36542;51.700;8.846;2022-12-07T07:44:21;2.60;99.90
50586;DHT22;36542;51.700;8.846;2022-12-07T07:46:47;2.60;99.90
50586;DHT22;36542;51.700;8.846;2022-12-07T07:49:12;2.60;99.90
50586;DHT22;36542;51.700;8.846;2022-12-07T07:51:38;2.60;99.90
50586;DHT22;36542;51.700;8.846;2022-12-07T07:54:04;2.60;99.90
50586;DHT22;36542;51.700;8.846;2022-12-07T07:56:29;2.60;99.90
50586;DHT22;36542;51.700;8.846;2022-12-07T07:58:55;2.50;99.90
50586;DHT22;36542;51.700;8.846;2022-12-07T08:01:20;2.50;99.90
50586;DHT22;36542;51.700;8.846;2022-12-07T08:03:47;2.50;99.90
50586;DHT22;36542;51.700;8.846;2022-12-07T08:06:12;2.50;99.90
50586;DHT22;36542;51.700;8.846;2022-12-07T08:08:38;2.50;99.90
50586;DHT22;36542;51.700;8.846;2022-12-07T08:11:07;2.50;99.90
50586;DHT22;36542;51.700;8.846;2022-12-07T08:13:33;2.50;99.90
50586;DHT22;36542;51.700;8.846;2022-12-07T08:16:03;2.50;99.90
50586;DHT22;36542;51.700;8.846;2022-12-07T08:18:29;2.50;99.90
50586;DHT22;36542;51.700;8.846;2022-12-07T08:20:59;2.50;99.90
50586;DHT22;36542;51.700;8.846;2022-12-07T08:23:26;2.50;99.90
50586;DHT22;36542;51.700;8.846;2022-12-07T08:25:51;2.50;99.90
50586;DHT22;36542;51.700;8.846;2022-12-07T08:28:17;2.50;99.90
50586;DHT22;36542;51.700;8.846;2022-12-07T08:30:42;2.50;99.90
50586;DHT22;36542;51.700;8.846;2022-12-07T08:33:09;2.50;99.90
50586;DHT22;36542;51.700;8.846;2022-12-07T08:35:35;2.50;99.90
50586;DHT22;36542;51.700;8.846;2022-12-07T08:38:01;2.40;99.90
50586;DHT22;36542;51.700;8.846;2022-12-07T08:40:27;2.50;99.90
50586;DHT22;36542;51.700;8.846;2022-12-07T08:42:53;2.40;99.90
50586;DHT22;36542;51.700;8.846;2022-12-07T08:45:20;2.50;99.90
50586;DHT22;36542;51.700;8.846;2022-12-07T08:47:51;2.50;99.90
50586;DHT22;36542;51.700;8.846;2022-12-07T08:50:17;2.50;99.90
50586;DHT22;36542;51.700;8.846;2022-12-07T08:52:43;2.50;99.90
50586;DHT22;36542;51.700;8.846;2022-12-07T08:55:10;2.50;99.90
50586;DHT22;36542;51.700;8.846;2022-12-07T08:57:37;2.40;99.90
50586;DHT22;36542;51.700;8.846;2022-12-07T09:00:04;2.40;99.90
50586;DHT22;36542;51.700;8.846;2022-12-07T09:02:31;2.40;99.90
50586;DHT22;36542;51.700;8.846;2022-12-07T09:04:56;2.50;99.90
50586;DHT22;36542;51.700;8.846;2022-12-07T09:07:22;2.50;99.90
50586;DHT22;36542;51.700;8.846;2022-12-07T09:09:48;2.50;99.90
50586;DHT22;36542;51.700;8.846;2022-12-07T09:12:13;2.50;99.90
50586;DHT22;36542;51.700;8.846;2022-12-07T09:14:38;2.50;99.90
50586;DHT22;36542;51.700;8.846;2022-12-07T09:17:06;2.60;99.90
50586;DHT22;36542;51.700;8.846;2022-12-07T09:19:32;2.60;99.90
50586;DHT22;36542;51.700;8.846;2022-12-07T09:21:57;2.60;99.90
50586;DHT22;36542;51.700;8.846;2022-12-07T09:24:23;2.60;99.90
50586;DHT22;36542;51.700;8.846;2022-12-07T09:26:49;2.60;99.90
50586;DHT22;36542;51.700;8.846;2022-12-07T09:29:14;2.60;99.90
50586;DHT22;36542;51.700;8.846;2022-12-07T09:31:40;2.60;99.90
50586;DHT22;36542;51.700;8.846;2022-12-07T09:34:06;2.60;99.90
50586;DHT22;36542;51.700;8.846;2022-12-07T09:36:32;2.60;99.90
50586;DHT22;36542;51.700;8.846;2022-12-07T09:38:58;2.60;99.90
50586;DHT22;36542;51.700;8.846;2022-12-07T09:41:25;2.60;99.90
50586;DHT22;36542;51.700;8.846;2022-12-07T09:43:52;2.60;99.90
50586;DHT22;36542;51.700;8.846;2022-12-07T09:46:20;2.60;99.90
50586;DHT22;36542;51.700;8.846;2022-12-07T09:48:48;2.60;99.90
50586;DHT22;36542;51.700;8.846;2022-12-07T09:51:20;2.60;99.90
50586;DHT22;36542;51.700;8.846;2022-12-07T09:53:47;2.60;99.90
50586;DHT22;36542;51.700;8.846;2022-12-07T09:56:14;2.60;99.90
50586;DHT22;36542;51.700;8.846;2022-12-07T09:58:40;2.70;99.90
50586;DHT22;36542;51.700;8.846;2022-12-07T10:01:10;2.70;99.90
50586;DHT22;36542;51.700;8.846;2022-12-07T10:03:48;2.70;99.90
50586;DHT22;36542;51.700;8.846;2022-12-07T10:06:14;2.80;99.90
50586;DHT22;36542;51.700;8.846;2022-12-07T10:08:40;2.90;99.90
50586;DHT22;36542;51.700;8.846;2022-12-07T10:11:06;2.90;99.90
50586;DHT22;36542;51.700;8.846;2022-12-07T10:16:04;3.00;99.90
50586;DHT22;36542;51.700;8.846;2022-12-07T10:18:48;3.10;99.90
50586;DHT22;36542;51.700;8.846;2022-12-07T10:21:19;3.10;99.90
50586;DHT22;36542;51.700;8.846;2022-12-07T10:24:02;3.20;99.90
50586;DHT22;36542;51.700;8.846;2022-12-07T10:31:50;3.20;99.90
50586;DHT22;36542;51.700;8.846;2022-12-07T10:34:24;3.20;99.90
50586;DHT22;36542;51.700;8.846;2022-12-07T10:36:50;3.20;99.90
50586;DHT22;36542;51.700;8.846;2022-12-07T10:39:19;3.20;99.90
50586;DHT22;36542;51.700;8.846;2022-12-07T10:41:59;3.20;99.90
50586;DHT22;36542;51.700;8.846;2022-12-07T10:44:30;3.10;99.90
50586;DHT22;36542;51.700;8.846;2022-12-07T10:47:13;3.20;99.90
50586;DHT22;36542;51.700;8.846;2022-12-07T10:52:36;3.10;99.90
50586;DHT22;36542;51.700;8.846;2022-12-07T11:17:17;3.20;99.90
50586;DHT22;36542;51.700;8.846;2022-12-07T11:30:12;3.40;99.90
50586;DHT22;36542;51.700;8.846;2022-12-07T11:32:52;3.40;99.90
50586;DHT22;36542;51.700;8.846;2022-12-07T11:38:18;3.40;99.90
50586;DHT22;36542;51.700;8.846;2022-12-07T11:40:48;3.40;99.90
50586;DHT22;36542;51.700;8.846;2022-12-07T11:43:35;3.40;99.90
50586;DHT22;36542;51.700;8.846;2022-12-07T11:46:13;3.40;99.90
50586;DHT22;36542;51.700;8.846;2022-12-07T11:51:28;3.40;99.90
50586;DHT22;36542;51.700;8.846;2022-12-07T11:54:18;3.40;99.90
50586;DHT22;36542;51.700;8.846;2022-12-07T11:56:48;3.40;99.90
50586;DHT22;36542;51.700;8.846;2022-12-07T11:59:42;3.40;99.90
50586;DHT22;36542;51.700;8.846;2022-12-07T12:02:28;3.40;99.90
50586;DHT22;36542;51.700;8.846;2022-12-07T12:05:15;3.50;99.90
50586;DHT22;36542;51.700;8.846;2022-12-07T12:07:43;3.50;99.90
50586;DHT22;36542;51.700;8.846;2022-12-07T12:18:53;3.50;99.90
50586;DHT22;36542;51.700;8.846;2022-12-07T12:21:27;3.50;99.90
50586;DHT22;36542;51.700;8.846;2022-12-07T12:24:02;3.50;99.90
50586;DHT22;36542;51.700;8.846;2022-12-07T12:26:33;3.50;99.90
50586;DHT22;36542;51.700;8.846;2022-12-07T12:29:02;3.60;99.90
50586;DHT22;36542;51.700;8.846;2022-12-07T12:31:33;3.60;99.90
50586;DHT22;36542;51.700;8.846;2022-12-07T12:34:04;3.70;99.90
50586;DHT22;36542;51.700;8.846;2022-12-07T12:46:57;3.90;99.90
50586;DHT22;36542;51.700;8.846;2022-12-07T12:54:22;3.80;99.90
50586;DHT22;36542;51.700;8.846;2022-12-07T12:57:13;3.80;99.90
50586;DHT22;36542;51.700;8.846;2022-12-07T13:02:36;3.90;99.90
50586;DHT22;36542;51.700;8.846;2022-12-07T13:08:01;3.80;99.90
50586;DHT22;36542;51.700;8.846;2022-12-07T13:15:41;3.80;99.90
50586;DHT22;36542;51.700;8.846;2022-12-07T13:23:29;4.00;99.90
50586;DHT22;36542;51.700;8.846;2022-12-07T13:26:09;4.10;99.90
50586;DHT22;36542;51.700;8.846;2022-12-07T13:28:40;4.10;99.90
50586;DHT22;36542;51.700;8.846;2022-12-07T13:33:45;4.00;99.90
50586;DHT22;36542;51.700;8.846;2022-12-07T13:36:33;3.90;99.90
50586;DHT22;36542;51.700;8.846;2022-12-07T13:41:41;3.80;99.90
50586;DHT22;36542;51.700;8.846;2022-12-07T13:44:17;3.80;99.90
50586;DHT22;36542;51.700;8.846;2022-12-07T13:49:50;3.80;99.90
50586;DHT22;36542;51.700;8.846;2022-12-07T13:52:27;3.70;99.90
50586;DHT22;36542;51.700;8.846;2022-12-07T13:57:25;3.70;99.90
50586;DHT22;36542;51.700;8.846;2022-12-07T13:59:52;3.70;99.90
50586;DHT22;36542;51.700;8.846;2022-12-07T14:04:51;3.70;99.90
50586;DHT22;36542;51.700;8.846;2022-12-07T14:07:28;3.70;99.90
50586;DHT22;36542;51.700;8.846;2022-12-07T14:09:59;3.70;99.90
50586;DHT22;36542;51.700;8.846;2022-12-07T14:12:26;3.70;99.90
50586;DHT22;36542;51.700;8.846;2022-12-07T14:14:52;3.70;99.90
50586;DHT22;36542;51.700;8.846;2022-12-07T14:17:21;3.70;99.90
50586;DHT22;36542;51.700;8.846;2022-12-07T14:19:57;3.80;99.90
50586;DHT22;36542;51.700;8.846;2022-12-07T14:22:26;3.80;99.90
50586;DHT22;36542;51.700;8.846;2022-12-07T14:25:00;3.80;99.90
50586;DHT22;36542;51.700;8.846;2022-12-07T14:27:31;3.80;99.90
50586;DHT22;36542;51.700;8.846;2022-12-07T14:29:59;3.70;99.90
50586;DHT22;36542;51.700;8.846;2022-12-07T14:32:27;3.70;99.90
50586;DHT22;36542;51.700;8.846;2022-12-07T14:34:59;3.70;99.90
50586;DHT22;36542;51.700;8.846;2022-12-07T14:37:26;3.70;99.90
50586;DHT22;36542;51.700;8.846;2022-12-07T14:39:53;3.70;99.90
50586;DHT22;36542;51.700;8.846;2022-12-07T14:42:18;3.70;99.90
50586;DHT22;36542;51.700;8.846;2022-12-07T14:44:45;3.70;99.90
50586;DHT22;36542;51.700;8.846;2022-12-07T14:47:11;3.70;99.90
50586;DHT22;36542;51.700;8.846;2022-12-07T14:49:36;3.60;99.90
50586;DHT22;36542;51.700;8.846;2022-12-07T14:52:02;3.60;99.90
50586;DHT22;36542;51.700;8.846;2022-12-07T14:54:31;3.60;99.90
50586;DHT22;36542;51.700;8.846;2022-12-07T14:56:57;3.60;99.90
50586;DHT22;36542;51.700;8.846;2022-12-07T14:59:23;3.60;99.90
50586;DHT22;36542;51.700;8.846;2022-12-07T15:01:48;3.60;99.90
50586;DHT22;36542;51.700;8.846;2022-12-07T15:04:14;3.50;99.90
50586;DHT22;36542;51.700;8.846;2022-12-07T15:06:40;3.50;99.90
50586;DHT22;36542;51.700;8.846;2022-12-07T15:09:05;3.50;99.90
50586;DHT22;36542;51.700;8.846;2022-12-07T15:11:31;3.50;99.90
50586;DHT22;36542;51.700;8.846;2022-12-07T15:13:57;3.50;99.90
50586;DHT22;36542;51.700;8.846;2022-12-07T15:16:37;3.50;99.90
50586;DHT22;36542;51.700;8.846;2022-12-07T15:19:05;3.50;99.90
50586;DHT22;36542;51.700;8.846;2022-12-07T15:21:31;3.50;99.90
50586;DHT22;36542;51.700;8.846;2022-12-07T15:23:56;3.40;99.90
50586;DHT22;36542;51.700;8.846;2022-12-07T15:26:22;3.40;99.90
50586;DHT22;36542;51.700;8.846;2022-12-07T15:28:47;3.40;99.90
50586;DHT22;36542;51.700;8.846;2022-12-07T15:31:17;3.40;99.90
50586;DHT22;36542;51.700;8.846;2022-12-07T15:33:43;3.40;99.90
50586;DHT22;36542;51.700;8.846;2022-12-07T15:36:21;3.40;99.90
50586;DHT22;36542;51.700;8.846;2022-12-07T15:38:47;3.40;99.90
50586;DHT22;36542;51.700;8.846;2022-12-07T15:41:13;3.30;99.90
50586;DHT22;36542;51.700;8.846;2022-12-07T15:43:39;3.30;99.90
50586;DHT22;36542;51.700;8.846;2022-12-07T15:46:23;3.30;99.90
50586;DHT22;36542;51.700;8.846;2022-12-07T15:48:48;3.20;99.90
50586;DHT22;36542;51.700;8.846;2022-12-07T15:51:14;3.20;99.90
50586;DHT22;36542;51.700;8.846;2022-12-07T15:53:39;3.20;99.90
50586;DHT22;36542;51.700;8.846;2022-12-07T15:56:07;3.20;99.90
50586;DHT22;36542;51.700;8.846;2022-12-07T15:58:33;3.20;99.90
50586;DHT22;36542;51.700;8.846;2022-12-07T16:00:58;3.20;99.90
50586;DHT22;36542;51.700;8.846;2022-12-07T16:03:24;3.10;99.90
50586;DHT22;36542;51.700;8.846;2022-12-07T16:05:50;3.20;99.90
50586;DHT22;36542;51.700;8.846;2022-12-07T16:08:16;3.20;99.90
50586;DHT22;36542;51.700;8.846;2022-12-07T16:10:41;3.20;99.90
50586;DHT22;36542;51.700;8.846;2022-12-07T16:13:09;3.10;99.90
50586;DHT22;36542;51.700;8.846;2022-12-07T16:15:40;3.10;99.90
50586;DHT22;36542;51.700;8.846;2022-12-07T16:18:06;3.10;99.90
50586;DHT22;36542;51.700;8.846;2022-12-07T16:20:32;3.10;99.90
50586;DHT22;36542;51.700;8.846;2022-12-07T16:22:58;3.10;99.90
50586;DHT22;36542;51.700;8.846;2022-12-07T16:25:23;3.00;99.90
50586;DHT22;36542;51.700;8.846;2022-12-07T16:27:49;3.10;99.90
50586;DHT22;36542;51.700;8.846;2022-12-07T16:30:15;3.00;99.90
50586;DHT22;36542;51.700;8.846;2022-12-07T16:32:43;3.10;99.90
50586;DHT22;36542;51.700;8.846;2022-12-07T16:35:10;3.10;99.90
50586;DHT22;36542;51.700;8.846;2022-12-07T16:37:36;3.10;99.90
50586;DHT22;36542;51.700;8.846;2022-12-07T16:40:02;3.10;99.90
50586;DHT22;36542;51.700;8.846;2022-12-07T16:42:32;3.10;99.90
50586;DHT22;36542;51.700;8.846;2022-12-07T16:44:57;3.10;99.90
50586;DHT22;36542;51.700;8.846;2022-12-07T16:47:23;3.10;99.90
50586;DHT22;36542;51.700;8.846;2022-12-07T16:49:48;3.10;99.90
50586;DHT22;36542;51.700;8.846;2022-12-07T16:52:14;3.00;99.90
50586;DHT22;36542;51.700;8.846;2022-12-07T16:54:40;3.00;99.90
50586;DHT22;36542;51.700;8.846;2022-12-07T16:57:05;3.10;99.90
50586;DHT22;36542;51.700;8.846;2022-12-07T16:59:31;3.00;99.90
50586;DHT22;36542;51.700;8.846;2022-12-07T17:01:56;3.00;99.90
50586;DHT22;36542;51.700;8.846;2022-12-07T17:04:22;3.00;99.90
50586;DHT22;36542;51.700;8.846;2022-12-07T17:06:47;3.00;99.90
50586;DHT22;36542;51.700;8.846;2022-12-07T17:09:13;3.00;99.90
50586;DHT22;36542;51.700;8.846;2022-12-07T17:11:38;3.00;99.90
50586;DHT22;36542;51.700;8.846;2022-12-07T17:14:04;3.00;99.90
50586;DHT22;36542;51.700;8.846;2022-12-07T17:16:48;3.00;99.90
50586;DHT22;36542;51.700;8.846;2022-12-07T17:19:17;2.90;99.90
50586;DHT22;36542;51.700;8.846;2022-12-07T17:21:43;2.90;99.90
50586;DHT22;36542;51.700;8.846;2022-12-07T17:24:11;2.90;99.90
50586;DHT22;36542;51.700;8.846;2022-12-07T17:26:38;2.90;99.90
50586;DHT22;36542;51.700;8.846;2022-12-07T17:29:05;2.90;99.90
50586;DHT22;36542;51.700;8.846;2022-12-07T17:31:33;2.90;99.90
50586;DHT22;36542;51.700;8.846;2022-12-07T17:33:58;2.90;99.90
50586;DHT22;36542;51.700;8.846;2022-12-07T17:36:28;2.90;99.90
50586;DHT22;36542;51.700;8.846;2022-12-07T17:38:53;2.90;99.90
50586;DHT22;36542;51.700;8.846;2022-12-07T17:41:22;2.90;99.90
50586;DHT22;36542;51.700;8.846;2022-12-07T17:44:16;2.90;99.90
50586;DHT22;36542;51.700;8.846;2022-12-07T17:46:42;2.80;99.90
50586;DHT22;36542;51.700;8.846;2022-12-07T17:49:08;2.80;99.90
50586;DHT22;36542;51.700;8.846;2022-12-07T17:51:34;2.80;99.90
50586;DHT22;36542;51.700;8.846;2022-12-07T17:54:19;2.80;99.90
50586;DHT22;36542;51.700;8.846;2022-12-07T17:56:45;2.80;99.90
50586;DHT22;36542;51.700;8.846;2022-12-07T17:59:11;2.80;99.90
50586;DHT22;36542;51.700;8.846;2022-12-07T18:01:36;2.90;99.90
50586;DHT22;36542;51.700;8.846;2022-12-07T18:04:02;2.90;99.90
50586;DHT22;36542;51.700;8.846;2022-12-07T18:06:28;2.90;99.90
50586;DHT22;36542;51.700;8.846;2022-12-07T18:08:54;2.90;99.90